createdAt,value
2018-08-16T00:00:17.850Z,3.83
2018-08-16T00:02:47.098Z,4.20
2018-08-16T00:05:16.210Z,4.62
2018-08-16T00:07:45.992Z,3.87
2018-08-16T00:10:16.032Z,4.33
2018-08-16T00:12:46.923Z,4.28
2018-08-16T00:15:17.646Z,4.30
2018-08-16T00:17:46.713Z,4.70
2018-08-16T00:20:16.463Z,4.60
2018-08-16T00:22:45.711Z,4.10
2018-08-16T00:25:15.931Z,4.25
2018-08-16T00:27:46.016Z,4.55
2018-08-16T00:30:18.742Z,4.05
2018-08-16T00:32:49.006Z,4.92
2018-08-16T00:35:19.196Z,4.92
2018-08-16T00:37:49.162Z,5.17
2018-08-16T00:40:19.399Z,4.45
2018-08-16T00:42:48.415Z,4.62
2018-08-16T00:45:17.611Z,5.10
2018-08-16T00:47:46.959Z,4.65
2018-08-16T00:50:16.789Z,5.03
2018-08-16T00:52:45.824Z,4.87
2018-08-16T00:55:15.679Z,4.78
2018-08-16T00:57:44.461Z,5.33
2018-08-16T01:00:15.618Z,5.35
2018-08-16T01:02:45.315Z,4.72
2018-08-16T01:05:14.606Z,5.00
2018-08-16T01:07:43.721Z,5.40
2018-08-16T01:10:14.338Z,5.40
2018-08-16T01:12:44.574Z,5.15
2018-08-16T01:15:14.854Z,5.60
2018-08-16T01:17:44.586Z,5.05
2018-08-16T01:20:13.920Z,5.47
2018-08-16T01:22:43.106Z,4.85
2018-08-16T01:25:12.491Z,4.62
2018-08-16T01:27:41.553Z,5.80
2018-08-16T01:30:11.630Z,5.50
2018-08-16T01:32:40.714Z,5.17
2018-08-16T01:35:10.669Z,5.58
2018-08-16T01:37:40.763Z,5.17
2018-08-16T01:40:10.581Z,4.55
2018-08-16T01:42:40.203Z,5.85
2018-08-16T01:45:10.383Z,5.70
2018-08-16T01:47:40.089Z,5.50
2018-08-16T01:50:09.698Z,6.30
2018-08-16T01:52:38.982Z,5.78
2018-08-16T01:55:08.594Z,6.45
2018-08-16T01:57:38.427Z,5.85
2018-08-16T02:00:09.474Z,6.53
2018-08-16T02:02:38.720Z,5.58
2018-08-16T02:05:08.019Z,5.95
2018-08-16T02:07:37.635Z,4.97
2018-08-16T02:10:07.592Z,5.95
2018-08-16T02:12:36.849Z,6.25
2018-08-16T02:15:08.933Z,7.55
2018-08-16T02:17:37.890Z,8.10
2018-08-16T02:20:08.331Z,5.50
2018-08-16T02:22:37.854Z,6.05
2018-08-16T02:25:07.124Z,5.30
2018-08-16T02:27:36.238Z,5.33
2018-08-16T02:30:06.378Z,6.30
2018-08-16T02:32:35.034Z,6.47
2018-08-16T02:35:03.971Z,6.30
2018-08-16T02:37:33.099Z,6.33
2018-08-16T02:40:02.038Z,7.60
2018-08-16T02:42:31.117Z,8.05
2018-08-16T02:45:01.067Z,7.50
2018-08-16T02:47:30.019Z,7.40
2018-08-16T02:49:59.139Z,7.42
2018-08-16T02:52:28.785Z,7.37
2018-08-16T02:54:57.627Z,7.42
2018-08-16T02:57:26.527Z,7.25
2018-08-16T02:59:55.849Z,8.28
2018-08-16T03:02:25.539Z,7.47
2018-08-16T03:04:55.323Z,7.70
2018-08-16T03:07:24.236Z,8.03
2018-08-16T03:09:53.252Z,5.72
2018-08-16T03:12:22.767Z,5.55
2018-08-16T03:14:51.607Z,3.95
2018-08-16T03:17:20.824Z,3.83
2018-08-16T03:19:50.195Z,3.85
2018-08-16T03:22:20.539Z,4.83
2018-08-16T03:24:49.246Z,4.65
2018-08-16T03:27:19.605Z,5.20
2018-08-16T03:29:48.678Z,5.62
2018-08-16T03:32:18.479Z,4.97
2018-08-16T03:34:47.775Z,4.35
2018-08-16T03:37:17.684Z,4.12
2018-08-16T03:39:46.694Z,4.35
2018-08-16T03:42:20.422Z,4.92
2018-08-16T03:44:49.620Z,3.50
2018-08-16T03:47:19.760Z,3.80
2018-08-16T03:49:48.715Z,4.20
2018-08-16T03:52:18.155Z,4.35
2018-08-16T03:54:48.163Z,4.03
2018-08-16T03:57:17.870Z,4.47
2018-08-16T03:59:47.696Z,4.42
2018-08-16T04:02:16.335Z,4.60
2018-08-16T04:04:45.226Z,3.85
2018-08-16T04:07:14.230Z,4.87
2018-08-16T04:09:43.160Z,4.47
2018-08-16T04:12:11.991Z,4.50
2018-08-16T04:14:41.194Z,5.00
2018-08-16T04:17:10.786Z,5.08
2018-08-16T04:19:39.995Z,6.40
2018-08-16T04:22:09.062Z,5.78
2018-08-16T04:24:39.075Z,8.08
2018-08-16T04:27:08.803Z,4.00
2018-08-16T04:29:37.910Z,4.30
2018-08-16T04:32:07.866Z,4.37
2018-08-16T04:34:36.838Z,4.37
2018-08-16T04:37:05.732Z,5.53
2018-08-16T04:39:35.162Z,8.93
2018-08-16T04:42:04.986Z,8.50
2018-08-16T04:44:34.454Z,8.83
2018-08-16T04:47:03.922Z,8.43
2018-08-16T04:49:33.163Z,9.30
2018-08-16T04:52:02.204Z,8.40
2018-08-16T04:54:31.107Z,6.75
2018-08-16T04:57:00.450Z,7.47
2018-08-16T04:59:29.484Z,5.72
2018-08-16T05:01:58.762Z,4.45
2018-08-16T05:04:27.832Z,5.33
2018-08-16T05:06:56.733Z,5.78
2018-08-16T05:09:25.887Z,3.72
2018-08-16T05:11:54.831Z,3.20
2018-08-16T05:14:24.430Z,3.12
2018-08-16T05:16:53.491Z,4.83
2018-08-16T05:19:22.750Z,3.22
2018-08-16T05:21:51.712Z,4.85
2018-08-16T05:24:22.047Z,4.20
2018-08-16T05:26:51.556Z,3.17
2018-08-16T05:29:20.531Z,3.98
2018-08-16T05:31:49.853Z,3.98
2018-08-16T05:34:18.543Z,3.42
2018-08-16T05:36:47.303Z,4.10
2018-08-16T05:39:16.532Z,5.72
2018-08-16T05:41:45.527Z,4.72
2018-08-16T05:44:14.716Z,4.78
2018-08-16T05:46:43.920Z,5.42
2018-08-16T05:49:13.632Z,4.92
2018-08-16T05:51:42.751Z,5.50
2018-08-16T05:54:11.755Z,5.60
2018-08-16T05:56:41.342Z,5.67
2018-08-16T05:59:10.545Z,6.33
2018-08-16T06:01:40.022Z,6.55
2018-08-16T06:04:09.238Z,5.40
2018-08-16T06:06:38.340Z,5.95
2018-08-16T06:09:10.311Z,5.60
2018-08-16T06:11:39.394Z,5.65
2018-08-16T06:14:09.551Z,6.10
2018-08-16T06:16:39.102Z,5.78
2018-08-16T06:19:08.739Z,5.83
2018-08-16T06:21:37.943Z,5.83
2018-08-16T06:24:08.328Z,6.17
2018-08-16T06:26:38.206Z,6.20
2018-08-16T06:29:08.009Z,7.03
2018-08-16T06:31:37.009Z,6.50
2018-08-16T06:34:06.840Z,5.47
2018-08-16T06:36:35.776Z,5.28
2018-08-16T06:39:06.831Z,5.72
2018-08-16T06:41:35.920Z,6.30
2018-08-16T06:44:04.855Z,5.50
2018-08-16T06:46:33.842Z,6.05
2018-08-16T06:49:02.894Z,5.50
2018-08-16T06:51:32.296Z,6.28
2018-08-16T06:54:01.443Z,5.83
2018-08-16T06:56:30.505Z,6.00
2018-08-16T06:58:59.698Z,6.30
2018-08-16T07:01:29.129Z,5.08
2018-08-16T07:03:58.566Z,5.28
2018-08-16T07:06:27.370Z,5.10
2018-08-16T07:08:56.709Z,4.62
2018-08-16T07:11:27.046Z,4.65
2018-08-16T07:13:56.049Z,4.75
2018-08-16T07:16:25.441Z,4.78
2018-08-16T07:18:55.751Z,5.03
2018-08-16T07:21:24.754Z,4.45
2018-08-16T07:23:54.757Z,4.25
2018-08-16T07:26:23.871Z,3.55
2018-08-16T07:28:52.742Z,4.37
2018-08-16T07:31:22.191Z,4.25
2018-08-16T07:33:51.211Z,4.53
2018-08-16T07:36:20.434Z,4.08
2018-08-16T07:38:49.218Z,4.53
2018-08-16T07:41:18.559Z,4.30
2018-08-16T07:43:47.843Z,3.92
2018-08-16T07:46:17.350Z,5.22
2018-08-16T07:48:46.141Z,4.45
2018-08-16T07:51:15.132Z,4.78
2018-08-16T07:53:44.738Z,4.40
2018-08-16T07:56:13.845Z,4.50
2018-08-16T07:58:43.143Z,4.80
2018-08-16T08:01:13.116Z,4.10
2018-08-16T08:03:42.067Z,3.60
2018-08-16T08:06:11.126Z,3.98
2018-08-16T08:08:40.285Z,4.22
2018-08-16T08:11:10.246Z,3.35
2018-08-16T08:13:39.360Z,3.20
2018-08-16T08:16:08.663Z,3.33
2018-08-16T08:18:37.754Z,3.67
2018-08-16T08:21:06.904Z,3.65
2018-08-16T08:23:35.955Z,3.70
2018-08-16T08:26:05.607Z,4.00
2018-08-16T08:28:34.634Z,4.10
2018-08-16T08:31:04.179Z,3.50
2018-08-16T08:33:33.047Z,3.70
2018-08-16T08:36:13.230Z,3.72
2018-08-16T08:38:42.160Z,3.80
2018-08-16T08:41:11.030Z,3.70
2018-08-16T08:43:51.068Z,3.47
2018-08-16T08:46:21.677Z,3.42
2018-08-16T08:48:50.846Z,3.15
2018-08-16T08:51:20.986Z,3.17
2018-08-16T08:54:09.550Z,3.22
2018-08-16T08:56:49.616Z,2.60
2018-08-16T08:59:18.498Z,3.17
2018-08-16T09:01:48.606Z,2.45
2018-08-16T09:04:17.817Z,3.20
2018-08-16T09:06:46.731Z,2.50
2018-08-16T09:09:15.610Z,2.87
2018-08-16T09:11:55.774Z,2.58
2018-08-16T09:14:35.609Z,3.50
2018-08-16T09:17:04.779Z,2.90
2018-08-16T09:19:33.981Z,2.70
2018-08-16T09:22:03.705Z,2.42
2018-08-16T09:24:32.949Z,1.72
2018-08-16T09:27:02.823Z,2.10
2018-08-16T09:29:58.559Z,1.75
2018-08-16T09:32:38.406Z,1.90
2018-08-16T09:35:07.898Z,1.55
2018-08-16T09:37:37.109Z,1.62
2018-08-16T09:40:07.027Z,1.47
2018-08-16T09:42:36.466Z,2.00
2018-08-16T09:45:16.313Z,1.77
2018-08-16T09:47:56.559Z,2.20
2018-08-16T09:50:25.545Z,2.45
2018-08-16T09:52:54.420Z,2.60
2018-08-16T09:55:23.961Z,1.80
2018-08-16T09:57:53.249Z,1.67
2018-08-16T10:00:26.790Z,2.10
2018-08-16T10:02:55.845Z,1.92
2018-08-16T10:05:25.539Z,2.60
2018-08-16T10:07:55.063Z,1.92
2018-08-16T10:10:24.759Z,1.20
2018-08-16T10:12:54.075Z,1.20
2018-08-16T10:15:23.707Z,1.45
2018-08-16T10:17:52.752Z,1.62
2018-08-16T10:20:21.820Z,1.75
2018-08-16T10:22:51.583Z,1.72
2018-08-16T10:25:20.682Z,1.40
2018-08-16T10:27:50.579Z,1.87
2018-08-16T10:30:19.915Z,1.82
2018-08-16T10:32:49.909Z,1.77
2018-08-16T10:35:21.183Z,1.30
2018-08-16T10:37:50.144Z,0.82
2018-08-16T10:40:19.647Z,1.35
2018-08-16T10:42:48.762Z,1.00
2018-08-16T10:45:18.409Z,0.78
2018-08-16T10:47:47.458Z,0.90
2018-08-16T10:50:16.583Z,0.90
2018-08-16T10:52:45.580Z,1.00
2018-08-16T10:55:14.532Z,1.02
2018-08-16T10:57:43.563Z,1.02
2018-08-16T11:00:13.428Z,0.90
2018-08-16T11:02:42.949Z,1.30
2018-08-16T11:05:12.708Z,1.02
2018-08-16T11:07:41.668Z,1.42
2018-08-16T11:10:10.819Z,1.25
2018-08-16T11:12:40.124Z,1.20
2018-08-16T11:15:09.478Z,1.15
2018-08-16T11:17:38.631Z,0.82
2018-08-16T11:20:07.840Z,1.20
2018-08-16T11:22:37.274Z,1.47
2018-08-16T11:25:06.375Z,1.70
2018-08-16T11:27:36.388Z,1.45
2018-08-16T11:30:06.439Z,1.62
2018-08-16T11:32:35.561Z,1.35
2018-08-16T11:35:05.310Z,1.45
2018-08-16T11:37:34.059Z,0.82
2018-08-16T11:40:03.382Z,1.70
2018-08-16T11:42:32.564Z,1.00
2018-08-16T11:45:01.671Z,1.20
2018-08-16T11:47:30.386Z,1.10
2018-08-16T11:49:59.711Z,1.27
2018-08-16T11:52:29.284Z,1.15
2018-08-16T11:54:58.807Z,1.15
2018-08-16T11:57:28.015Z,1.10
2018-08-16T11:59:57.226Z,1.07
2018-08-16T12:02:26.727Z,1.10
2018-08-16T12:04:55.925Z,1.30
2018-08-16T12:07:25.507Z,1.10
2018-08-16T12:09:54.932Z,1.20
2018-08-16T12:12:24.640Z,1.17
2018-08-16T12:14:53.595Z,1.62
2018-08-16T12:17:22.993Z,1.85
2018-08-16T12:19:51.920Z,1.47
2018-08-16T12:22:21.076Z,1.20
2018-08-16T12:24:51.483Z,1.50
2018-08-16T12:27:20.751Z,1.07
2018-08-16T12:29:49.543Z,1.20
2018-08-16T12:32:18.959Z,1.27
2018-08-16T12:34:48.048Z,1.02
2018-08-16T12:37:17.139Z,1.22
2018-08-16T12:39:46.683Z,1.07
2018-08-16T12:42:15.656Z,1.20
2018-08-16T12:44:44.738Z,0.90
2018-08-16T12:47:14.033Z,0.90
2018-08-16T12:49:43.348Z,1.02
2018-08-16T12:52:12.126Z,1.00
2018-08-16T12:54:41.331Z,0.98
2018-08-16T12:57:10.332Z,1.12
2018-08-16T12:59:39.624Z,1.10
2018-08-16T13:02:09.468Z,1.10
2018-08-16T13:04:38.542Z,1.00
2018-08-16T13:07:07.892Z,1.02
2018-08-16T13:09:37.151Z,1.00
2018-08-16T13:12:06.333Z,0.93
2018-08-16T13:14:35.538Z,0.95
2018-08-16T13:17:05.081Z,1.07
2018-08-16T13:19:34.115Z,0.80
2018-08-16T13:22:02.956Z,1.17
2018-08-16T13:24:32.333Z,1.10
2018-08-16T13:27:02.061Z,0.80
2018-08-16T13:29:31.343Z,1.00
2018-08-16T13:32:02.317Z,1.05
2018-08-16T13:34:31.186Z,1.00
2018-08-16T13:37:00.517Z,0.80
2018-08-16T13:39:29.547Z,1.05
2018-08-16T13:41:58.354Z,1.10
2018-08-16T13:44:27.131Z,1.00
2018-08-16T13:46:56.055Z,1.10
2018-08-16T13:49:24.827Z,1.20
2018-08-16T13:51:53.627Z,0.70
2018-08-16T13:54:22.617Z,0.80
2018-08-16T13:56:51.416Z,0.98
2018-08-16T13:59:20.274Z,1.00
2018-08-16T14:01:49.492Z,1.05
2018-08-16T14:04:18.151Z,0.98
2018-08-16T14:06:46.978Z,0.80
2018-08-16T14:09:16.190Z,0.90
2018-08-16T14:11:44.971Z,0.90
2018-08-16T14:14:13.706Z,0.85
2018-08-16T14:16:42.588Z,1.12
2018-08-16T14:19:11.346Z,1.20
2018-08-16T14:21:40.118Z,0.90
2018-08-16T14:24:09.348Z,1.00
2018-08-16T14:26:38.119Z,0.93
2018-08-16T14:29:06.895Z,0.90
2018-08-16T14:31:35.995Z,1.00
2018-08-16T14:34:04.992Z,0.85
2018-08-16T14:36:33.815Z,1.00
2018-08-16T14:39:02.790Z,1.00
2018-08-16T14:41:31.579Z,0.80
2018-08-16T14:44:00.454Z,1.05
2018-08-16T14:46:29.551Z,0.70
2018-08-16T14:48:58.319Z,0.90
2018-08-16T14:51:27.086Z,0.85
2018-08-16T14:53:56.399Z,1.17
2018-08-16T14:56:25.099Z,0.70
2018-08-16T14:58:53.784Z,1.30
2018-08-16T15:01:22.922Z,1.30
2018-08-16T15:03:51.697Z,1.50
2018-08-16T15:06:20.592Z,1.10
2018-08-16T15:08:49.995Z,1.10
2018-08-16T15:11:35.867Z,1.07
2018-08-16T15:14:05.116Z,0.93
2018-08-16T15:16:33.839Z,0.85
2018-08-16T15:19:02.671Z,0.90
2018-08-16T15:21:31.993Z,1.10
2018-08-16T15:24:00.775Z,1.00
2018-08-16T15:26:29.542Z,0.90
2018-08-16T15:28:58.745Z,0.85
2018-08-16T15:31:27.584Z,0.90
2018-08-16T15:33:56.314Z,0.80
2018-08-16T15:36:25.461Z,0.95
2018-08-16T15:38:54.367Z,0.90
2018-08-16T15:41:23.201Z,0.88
2018-08-16T15:43:52.324Z,0.98
2018-08-16T15:46:21.190Z,1.10
2018-08-16T15:48:49.893Z,0.90
2018-08-16T15:51:23.586Z,0.72
2018-08-16T15:53:52.443Z,1.25
2018-08-16T15:56:21.062Z,0.90
2018-08-16T15:58:50.365Z,0.80
2018-08-16T16:01:19.149Z,0.90
2018-08-16T16:03:47.952Z,1.12
2018-08-16T16:06:16.756Z,0.80
2018-08-16T16:08:45.628Z,1.00
2018-08-16T16:11:14.326Z,1.22
2018-08-16T16:13:43.523Z,0.85
2018-08-16T16:16:12.231Z,0.93
2018-08-16T16:18:40.992Z,0.82
2018-08-16T16:21:09.778Z,0.80
2018-08-16T16:23:38.572Z,1.22
2018-08-16T16:26:07.260Z,1.10
2018-08-16T16:28:36.419Z,1.02
2018-08-16T16:31:05.632Z,0.98
2018-08-16T16:33:34.441Z,1.00
2018-08-16T16:36:03.456Z,1.22
2018-08-16T16:38:32.343Z,1.27
2018-08-16T16:41:01.193Z,1.15
2018-08-16T16:43:30.447Z,0.72
2018-08-16T16:45:59.204Z,0.78
2018-08-16T16:48:27.962Z,1.20
2018-08-16T16:50:57.194Z,1.20
2018-08-16T16:53:25.879Z,1.10
2018-08-16T16:55:54.515Z,1.45
2018-08-16T16:58:23.254Z,1.10
2018-08-16T17:01:00.183Z,1.02
2018-08-16T17:03:29.035Z,1.10
2018-08-16T17:05:57.763Z,0.95
2018-08-16T17:08:26.520Z,1.00
2018-08-16T17:10:55.829Z,1.40
2018-08-16T17:13:24.538Z,1.60
2018-08-16T17:15:53.243Z,1.20
2018-08-16T17:18:22.083Z,1.55
2018-08-16T17:21:01.046Z,1.27
2018-08-16T17:23:30.114Z,2.08
2018-08-16T17:25:58.912Z,1.47
2018-08-16T17:28:27.682Z,1.50
2018-08-16T17:30:56.969Z,1.07
2018-08-16T17:33:25.726Z,1.30
2018-08-16T17:35:54.564Z,1.90
2018-08-16T17:38:23.219Z,1.60
2018-08-16T17:40:52.043Z,1.77
2018-08-16T17:43:20.804Z,1.77
2018-08-16T17:45:50.134Z,1.80
2018-08-16T17:48:18.892Z,1.60
2018-08-16T17:56:53.002Z,2.22
2018-08-16T17:59:21.885Z,1.80
2018-08-16T18:01:50.669Z,1.62
2018-08-16T18:04:19.448Z,2.25
2018-08-16T18:06:48.341Z,1.67
2018-08-16T18:09:17.044Z,1.12
2018-08-16T18:11:46.108Z,1.45
2018-08-16T18:14:14.888Z,1.90
2018-08-16T18:16:43.732Z,1.85
2018-08-16T18:19:13.004Z,1.42
2018-08-16T18:21:41.759Z,1.60
2018-08-16T18:24:10.591Z,1.90
2018-08-16T18:26:39.988Z,2.40
2018-08-16T18:29:08.837Z,2.50
2018-08-16T18:31:37.752Z,1.42
2018-08-16T18:34:07.276Z,2.10
2018-08-16T18:36:36.149Z,1.90
2018-08-16T18:39:06.580Z,2.08
2018-08-16T18:41:35.893Z,2.20
2018-08-16T18:44:04.931Z,2.70
2018-08-16T18:46:34.019Z,3.20
2018-08-16T18:49:03.326Z,3.08
2018-08-16T18:51:32.900Z,2.47
2018-08-16T18:54:01.787Z,2.35
2018-08-16T18:56:49.675Z,2.55
2018-08-16T18:59:18.481Z,2.33
2018-08-16T19:01:47.184Z,2.72
2018-08-16T19:04:16.309Z,2.70
2018-08-16T19:06:45.231Z,2.15
2018-08-16T19:09:14.090Z,2.05
2018-08-16T19:11:43.124Z,2.37
2018-08-16T19:14:11.981Z,2.25
2018-08-16T19:16:40.882Z,2.02
2018-08-16T19:19:09.807Z,2.27
2018-08-16T19:21:38.858Z,2.52
2018-08-16T19:24:07.702Z,2.22
2018-08-16T19:26:36.882Z,2.52
2018-08-16T19:29:05.579Z,2.00
2018-08-16T19:31:34.358Z,2.60
2018-08-16T19:34:03.469Z,3.10
2018-08-16T19:36:32.139Z,2.80
2018-08-16T19:39:00.922Z,3.17
2018-08-16T19:41:30.659Z,3.62
2018-08-16T19:43:59.427Z,3.83
2018-08-16T19:46:28.144Z,3.08
2018-08-16T19:48:57.313Z,2.98
2018-08-16T19:51:26.027Z,2.90
2018-08-16T19:53:54.782Z,2.02
2018-08-16T19:56:24.096Z,3.00
2018-08-16T19:58:52.868Z,2.58
2018-08-16T20:01:21.754Z,2.02
2018-08-16T20:03:50.424Z,2.40
2018-08-16T20:06:19.148Z,2.75
2018-08-16T20:08:47.980Z,2.50
2018-08-16T20:11:17.080Z,2.33
2018-08-16T20:13:45.842Z,2.17
2018-08-16T20:16:14.702Z,2.25
2018-08-16T20:18:44.027Z,2.50
2018-08-16T20:21:25.111Z,2.60
2018-08-16T20:23:54.576Z,2.22
2018-08-16T20:26:23.463Z,2.70
2018-08-16T20:28:52.358Z,4.05
2018-08-16T20:31:21.478Z,3.02
2018-08-16T20:33:50.289Z,2.40
2018-08-16T20:36:19.009Z,2.60
2018-08-16T20:38:48.477Z,3.02
2018-08-16T20:41:17.150Z,2.42
2018-08-16T20:43:45.950Z,3.10
2018-08-16T20:46:14.987Z,3.50
2018-08-16T20:48:43.700Z,4.80
2018-08-16T20:51:12.524Z,5.50
2018-08-16T20:53:41.273Z,5.85
2018-08-16T20:56:09.966Z,7.85
2018-08-16T20:58:38.742Z,5.58
2018-08-16T21:01:07.977Z,4.87
2018-08-16T21:03:36.675Z,10.72
2018-08-16T21:06:06.582Z,4.55
2018-08-16T21:08:35.762Z,5.33
2018-08-16T21:11:04.639Z,5.55
2018-08-16T21:13:33.433Z,6.00
2018-08-16T21:16:02.878Z,5.87
2018-08-16T21:18:31.680Z,5.10
2018-08-16T21:21:00.520Z,6.00
2018-08-16T21:23:29.663Z,6.25
2018-08-16T21:25:58.374Z,4.92
2018-08-16T21:28:27.095Z,6.12
2018-08-16T21:30:56.206Z,6.25
2018-08-16T21:33:24.920Z,6.37
2018-08-16T21:35:53.693Z,5.80
2018-08-16T21:38:23.005Z,4.90
2018-08-16T21:40:51.727Z,5.42
2018-08-16T21:43:20.491Z,5.00
2018-08-16T21:45:50.063Z,4.90
2018-08-16T21:48:18.899Z,4.87
2018-08-16T21:50:47.615Z,4.87
2018-08-16T21:53:16.821Z,5.75
2018-08-16T21:55:45.654Z,4.55
2018-08-16T21:58:14.353Z,4.05
2018-08-16T22:00:49.699Z,5.12
2018-08-16T22:03:20.812Z,5.30
2018-08-16T22:05:56.789Z,4.47
2018-08-16T22:08:27.443Z,4.65
2018-08-16T22:10:56.293Z,4.97
2018-08-16T22:13:25.399Z,4.87
2018-08-16T22:15:54.313Z,5.12
2018-08-16T22:18:23.141Z,5.35
2018-08-16T22:20:52.050Z,5.87
2018-08-16T22:23:20.948Z,5.92
2018-08-16T22:25:49.819Z,6.30
2018-08-16T22:28:19.010Z,5.92
2018-08-16T22:30:47.848Z,5.83
2018-08-16T22:33:16.712Z,5.33
2018-08-16T22:35:45.853Z,6.65
2018-08-16T22:38:14.993Z,5.40
2018-08-16T22:40:43.785Z,5.08
2018-08-16T22:43:12.819Z,4.92
2018-08-16T22:45:41.557Z,5.45
2018-08-16T22:48:10.282Z,6.03
2018-08-16T22:50:39.482Z,5.40
2018-08-16T22:53:08.758Z,5.83
2018-08-16T22:55:37.607Z,6.05
2018-08-16T22:58:07.192Z,5.80
2018-08-16T23:00:42.303Z,6.12
2018-08-16T23:03:11.535Z,6.42
2018-08-16T23:05:40.809Z,5.47
2018-08-16T23:08:09.992Z,6.05
2018-08-16T23:10:39.236Z,5.47
2018-08-16T23:13:08.083Z,5.67
2018-08-16T23:15:36.955Z,6.08
2018-08-16T23:18:06.218Z,7.67
2018-08-16T23:20:35.093Z,6.67
2018-08-16T23:23:03.915Z,5.85
2018-08-16T23:25:33.147Z,6.30
2018-08-16T23:28:01.963Z,6.47
2018-08-16T23:30:31.887Z,5.62
2018-08-16T23:33:00.998Z,5.37
2018-08-16T23:35:29.906Z,5.12
2018-08-16T23:37:58.742Z,6.08
2018-08-16T23:40:28.189Z,5.65
2018-08-16T23:42:57.446Z,4.78
2018-08-16T23:45:26.282Z,5.53
2018-08-16T23:48:06.475Z,5.85
2018-08-16T23:50:43.190Z,6.03
2018-08-16T23:53:12.039Z,5.53
2018-08-16T23:55:40.862Z,5.25
2018-08-16T23:58:09.699Z,6.00
